sensor_id;sensor_type;location;lat;lon;timestamp;P1;durP1;ratioP1;P2;durP2;ratioP2
27580;SDS011;63557;52.302;7.964;2023-07-08T00:04:48;4.33;;;3.90;;
27580;SDS011;63557;52.302;7.964;2023-07-08T00:09:49;7.78;;;4.20;;
27580;SDS011;63557;52.302;7.964;2023-07-08T00:14:49;5.47;;;4.90;;
27580;SDS011;63557;52.302;7.964;2023-07-08T00:19:50;5.73;;;4.80;;
27580;SDS011;63557;52.302;7.964;2023-07-08T00:24:53;7.28;;;4.63;;
27580;SDS011;63557;52.302;7.964;2023-07-08T00:29:53;8.90;;;4.70;;
27580;SDS011;63557;52.302;7.964;2023-07-08T00:34:54;8.13;;;4.57;;
27580;SDS011;63557;52.302;7.964;2023-07-08T00:39:54;10.50;;;5.07;;
27580;SDS011;63557;52.302;7.964;2023-07-08T00:44:54;6.47;;;4.43;;
27580;SDS011;63557;52.302;7.964;2023-07-08T00:49:56;5.97;;;5.03;;
27580;SDS011;63557;52.302;7.964;2023-07-08T00:54:58;4.95;;;4.38;;
27580;SDS011;63557;52.302;7.964;2023-07-08T01:00:07;6.32;;;4.90;;
27580;SDS011;63557;52.302;7.964;2023-07-08T01:05:20;7.80;;;4.90;;
27580;SDS011;63557;52.302;7.964;2023-07-08T01:10:28;5.20;;;4.30;;
27580;SDS011;63557;52.302;7.964;2023-07-08T01:15:31;9.65;;;5.22;;
27580;SDS011;63557;52.302;7.964;2023-07-08T01:20:33;6.35;;;4.70;;
27580;SDS011;63557;52.302;7.964;2023-07-08T01:25:34;6.60;;;5.03;;
27580;SDS011;63557;52.302;7.964;2023-07-08T01:30:35;7.05;;;4.85;;
27580;SDS011;63557;52.302;7.964;2023-07-08T01:35:36;5.95;;;4.70;;
27580;SDS011;63557;52.302;7.964;2023-07-08T01:40:36;7.13;;;5.67;;
27580;SDS011;63557;52.302;7.964;2023-07-08T01:45:38;6.85;;;4.78;;
27580;SDS011;63557;52.302;7.964;2023-07-08T01:50:45;6.18;;;5.50;;
27580;SDS011;63557;52.302;7.964;2023-07-08T01:55:46;7.03;;;5.38;;
27580;SDS011;63557;52.302;7.964;2023-07-08T02:00:46;6.53;;;5.10;;
27580;SDS011;63557;52.302;7.964;2023-07-08T02:05:49;7.25;;;5.32;;
27580;SDS011;63557;52.302;7.964;2023-07-08T02:10:50;6.00;;;5.00;;
27580;SDS011;63557;52.302;7.964;2023-07-08T02:15:51;7.75;;;5.40;;
27580;SDS011;63557;52.302;7.964;2023-07-08T02:20:51;6.30;;;5.45;;
27580;SDS011;63557;52.302;7.964;2023-07-08T02:25:53;8.20;;;5.57;;
27580;SDS011;63557;52.302;7.964;2023-07-08T02:30:54;5.75;;;5.15;;
27580;SDS011;63557;52.302;7.964;2023-07-08T02:35:54;7.43;;;5.50;;
27580;SDS011;63557;52.302;7.964;2023-07-08T02:40:55;8.30;;;5.40;;
27580;SDS011;63557;52.302;7.964;2023-07-08T02:45:55;10.90;;;6.22;;
27580;SDS011;63557;52.302;7.964;2023-07-08T02:50:59;6.85;;;5.35;;
27580;SDS011;63557;52.302;7.964;2023-07-08T02:56:00;6.68;;;5.18;;
27580;SDS011;63557;52.302;7.964;2023-07-08T03:01:01;8.88;;;5.70;;
27580;SDS011;63557;52.302;7.964;2023-07-08T03:06:02;7.82;;;5.63;;
27580;SDS011;63557;52.302;7.964;2023-07-08T03:11:03;7.85;;;6.20;;
27580;SDS011;63557;52.302;7.964;2023-07-08T03:16:04;7.03;;;5.90;;
27580;SDS011;63557;52.302;7.964;2023-07-08T03:21:13;10.02;;;5.93;;
27580;SDS011;63557;52.302;7.964;2023-07-08T03:26:24;7.28;;;5.72;;
27580;SDS011;63557;52.302;7.964;2023-07-08T03:31:25;10.98;;;5.88;;
27580;SDS011;63557;52.302;7.964;2023-07-08T03:36:26;10.50;;;6.43;;
27580;SDS011;63557;52.302;7.964;2023-07-08T03:41:27;7.63;;;6.18;;
27580;SDS011;63557;52.302;7.964;2023-07-08T03:46:28;7.15;;;6.00;;
27580;SDS011;63557;52.302;7.964;2023-07-08T03:51:30;8.53;;;6.67;;
27580;SDS011;63557;52.302;7.964;2023-07-08T03:56:32;10.35;;;6.50;;
27580;SDS011;63557;52.302;7.964;2023-07-08T04:01:33;9.43;;;7.63;;
27580;SDS011;63557;52.302;7.964;2023-07-08T04:06:33;8.02;;;7.00;;
27580;SDS011;63557;52.302;7.964;2023-07-08T04:11:34;8.40;;;7.45;;
27580;SDS011;63557;52.302;7.964;2023-07-08T04:16:42;10.43;;;7.17;;
27580;SDS011;63557;52.302;7.964;2023-07-08T04:21:45;9.15;;;7.22;;
27580;SDS011;63557;52.302;7.964;2023-07-08T04:26:46;9.18;;;7.20;;
27580;SDS011;63557;52.302;7.964;2023-07-08T04:31:47;12.77;;;8.10;;
27580;SDS011;63557;52.302;7.964;2023-07-08T04:36:47;9.37;;;7.13;;
27580;SDS011;63557;52.302;7.964;2023-07-08T04:41:48;8.73;;;6.93;;
27580;SDS011;63557;52.302;7.964;2023-07-08T04:46:49;8.03;;;7.23;;
27580;SDS011;63557;52.302;7.964;2023-07-08T04:51:51;10.82;;;6.85;;
27580;SDS011;63557;52.302;7.964;2023-07-08T04:56:52;10.80;;;7.07;;
27580;SDS011;63557;52.302;7.964;2023-07-08T05:01:53;9.95;;;6.78;;
27580;SDS011;63557;52.302;7.964;2023-07-08T05:06:53;10.88;;;7.13;;
27580;SDS011;63557;52.302;7.964;2023-07-08T05:11:53;8.40;;;7.43;;
27580;SDS011;63557;52.302;7.964;2023-07-08T05:16:56;9.87;;;6.63;;
27580;SDS011;63557;52.302;7.964;2023-07-08T05:21:57;9.70;;;7.43;;
27580;SDS011;63557;52.302;7.964;2023-07-08T05:26:57;8.63;;;7.00;;
27580;SDS011;63557;52.302;7.964;2023-07-08T05:31:58;7.93;;;6.72;;
27580;SDS011;63557;52.302;7.964;2023-07-08T05:36:59;11.60;;;6.70;;
27580;SDS011;63557;52.302;7.964;2023-07-08T05:41:59;8.33;;;7.07;;
27580;SDS011;63557;52.302;7.964;2023-07-08T05:46:59;9.37;;;6.73;;
27580;SDS011;63557;52.302;7.964;2023-07-08T05:52:00;7.25;;;6.40;;
27580;SDS011;63557;52.302;7.964;2023-07-08T05:57:06;8.38;;;6.53;;
27580;SDS011;63557;52.302;7.964;2023-07-08T06:02:08;9.32;;;6.38;;
27580;SDS011;63557;52.302;7.964;2023-07-08T06:07:10;10.45;;;6.78;;
27580;SDS011;63557;52.302;7.964;2023-07-08T06:12:10;10.35;;;6.65;;
27580;SDS011;63557;52.302;7.964;2023-07-08T06:17:11;10.95;;;6.43;;
27580;SDS011;63557;52.302;7.964;2023-07-08T06:22:11;9.30;;;6.30;;
27580;SDS011;63557;52.302;7.964;2023-07-08T06:27:11;8.23;;;5.77;;
27580;SDS011;63557;52.302;7.964;2023-07-08T06:32:12;7.20;;;6.30;;
27580;SDS011;63557;52.302;7.964;2023-07-08T06:37:12;7.40;;;5.70;;
27580;SDS011;63557;52.302;7.964;2023-07-08T06:42:12;17.27;;;5.73;;
27580;SDS011;63557;52.302;7.964;2023-07-08T06:47:20;8.18;;;5.93;;
27580;SDS011;63557;52.302;7.964;2023-07-08T06:52:20;6.88;;;5.65;;
27580;SDS011;63557;52.302;7.964;2023-07-08T06:57:21;6.78;;;5.30;;
27580;SDS011;63557;52.302;7.964;2023-07-08T07:02:21;5.97;;;4.93;;
27580;SDS011;63557;52.302;7.964;2023-07-08T07:07:21;7.40;;;4.93;;
27580;SDS011;63557;52.302;7.964;2023-07-08T07:12:23;7.97;;;5.10;;
27580;SDS011;63557;52.302;7.964;2023-07-08T07:17:24;7.38;;;5.57;;
27580;SDS011;63557;52.302;7.964;2023-07-08T07:22:25;6.90;;;4.45;;
27580;SDS011;63557;52.302;7.964;2023-07-08T07:27:26;7.10;;;4.13;;
27580;SDS011;63557;52.302;7.964;2023-07-08T07:32:26;5.82;;;5.07;;
27580;SDS011;63557;52.302;7.964;2023-07-08T07:37:27;5.82;;;4.00;;
27580;SDS011;63557;52.302;7.964;2023-07-08T07:42:27;9.83;;;4.93;;
27580;SDS011;63557;52.302;7.964;2023-07-08T07:47:28;5.88;;;4.38;;
27580;SDS011;63557;52.302;7.964;2023-07-08T07:52:28;5.30;;;4.47;;
27580;SDS011;63557;52.302;7.964;2023-07-08T07:57:28;5.17;;;4.07;;
27580;SDS011;63557;52.302;7.964;2023-07-08T08:02:29;7.43;;;5.03;;
27580;SDS011;63557;52.302;7.964;2023-07-08T08:07:29;8.13;;;5.33;;
27580;SDS011;63557;52.302;7.964;2023-07-08T08:12:30;7.10;;;5.13;;
27580;SDS011;63557;52.302;7.964;2023-07-08T08:17:30;5.90;;;4.97;;
27580;SDS011;63557;52.302;7.964;2023-07-08T08:22:30;6.50;;;4.43;;
27580;SDS011;63557;52.302;7.964;2023-07-08T08:27:31;9.17;;;4.23;;
27580;SDS011;63557;52.302;7.964;2023-07-08T08:32:31;6.20;;;4.73;;
27580;SDS011;63557;52.302;7.964;2023-07-08T08:37:31;10.13;;;4.90;;
27580;SDS011;63557;52.302;7.964;2023-07-08T08:42:45;6.97;;;3.87;;
27580;SDS011;63557;52.302;7.964;2023-07-08T08:47:50;7.00;;;4.50;;
27580;SDS011;63557;52.302;7.964;2023-07-08T08:52:51;5.07;;;4.65;;
27580;SDS011;63557;52.302;7.964;2023-07-08T09:03:02;7.30;;;4.73;;
27580;SDS011;63557;52.302;7.964;2023-07-08T09:08:23;6.22;;;4.53;;
27580;SDS011;63557;52.302;7.964;2023-07-08T09:13:28;5.53;;;4.85;;
27580;SDS011;63557;52.302;7.964;2023-07-08T09:18:33;8.30;;;4.65;;
27580;SDS011;63557;52.302;7.964;2023-07-08T09:23:37;6.80;;;4.97;;
27580;SDS011;63557;52.302;7.964;2023-07-08T09:28:41;6.68;;;4.72;;
27580;SDS011;63557;52.302;7.964;2023-07-08T09:33:42;6.47;;;4.93;;
27580;SDS011;63557;52.302;7.964;2023-07-08T09:38:46;6.85;;;5.00;;
27580;SDS011;63557;52.302;7.964;2023-07-08T09:43:46;7.72;;;4.80;;
27580;SDS011;63557;52.302;7.964;2023-07-08T09:48:47;7.87;;;5.27;;
27580;SDS011;63557;52.302;7.964;2023-07-08T09:53:47;9.93;;;5.40;;
27580;SDS011;63557;52.302;7.964;2023-07-08T09:58:48;6.37;;;5.57;;
27580;SDS011;63557;52.302;7.964;2023-07-08T10:03:49;6.45;;;4.68;;
27580;SDS011;63557;52.302;7.964;2023-07-08T10:08:49;6.77;;;4.90;;
27580;SDS011;63557;52.302;7.964;2023-07-08T10:13:50;6.70;;;5.30;;
27580;SDS011;63557;52.302;7.964;2023-07-08T10:18:52;6.85;;;5.53;;
27580;SDS011;63557;52.302;7.964;2023-07-08T10:44:45;10.32;;;5.75;;
27580;SDS011;63557;52.302;7.964;2023-07-08T11:05:27;7.80;;;6.05;;
27580;SDS011;63557;52.302;7.964;2023-07-08T11:21:24;6.55;;;5.85;;
27580;SDS011;63557;52.302;7.964;2023-07-08T11:31:45;6.65;;;6.03;;
27580;SDS011;63557;52.302;7.964;2023-07-08T11:36:46;8.18;;;6.70;;
27580;SDS011;63557;52.302;7.964;2023-07-08T11:41:48;9.60;;;7.07;;
27580;SDS011;63557;52.302;7.964;2023-07-08T11:51:52;7.13;;;6.53;;
27580;SDS011;63557;52.302;7.964;2023-07-08T12:07:02;8.48;;;7.07;;
27580;SDS011;63557;52.302;7.964;2023-07-08T12:12:06;7.72;;;7.00;;
27580;SDS011;63557;52.302;7.964;2023-07-08T12:17:13;9.82;;;7.88;;
27580;SDS011;63557;52.302;7.964;2023-07-08T12:22:14;7.85;;;7.15;;
27580;SDS011;63557;52.302;7.964;2023-07-08T12:27:14;9.63;;;8.13;;
27580;SDS011;63557;52.302;7.964;2023-07-08T12:32:15;8.50;;;7.70;;
27580;SDS011;63557;52.302;7.964;2023-07-08T12:37:15;7.95;;;7.15;;
27580;SDS011;63557;52.302;7.964;2023-07-08T12:42:16;7.93;;;7.20;;
27580;SDS011;63557;52.302;7.964;2023-07-08T12:47:19;8.00;;;7.20;;
27580;SDS011;63557;52.302;7.964;2023-07-08T12:52:23;8.85;;;7.95;;
27580;SDS011;63557;52.302;7.964;2023-07-08T12:57:23;8.40;;;6.40;;
27580;SDS011;63557;52.302;7.964;2023-07-08T13:02:23;9.43;;;7.13;;
27580;SDS011;63557;52.302;7.964;2023-07-08T13:07:30;7.70;;;7.05;;
27580;SDS011;63557;52.302;7.964;2023-07-08T13:12:32;7.78;;;7.07;;
27580;SDS011;63557;52.302;7.964;2023-07-08T13:17:35;8.95;;;8.15;;
27580;SDS011;63557;52.302;7.964;2023-07-08T13:22:37;9.23;;;8.37;;
27580;SDS011;63557;52.302;7.964;2023-07-08T13:27:37;8.33;;;7.53;;
27580;SDS011;63557;52.302;7.964;2023-07-08T13:32:38;9.10;;;8.20;;
27580;SDS011;63557;52.302;7.964;2023-07-08T13:37:38;11.17;;;7.90;;
27580;SDS011;63557;52.302;7.964;2023-07-08T13:42:39;9.67;;;8.57;;
27580;SDS011;63557;52.302;7.964;2023-07-08T13:47:46;9.50;;;8.00;;
27580;SDS011;63557;52.302;7.964;2023-07-08T13:52:57;8.05;;;7.28;;
27580;SDS011;63557;52.302;7.964;2023-07-08T13:57:58;12.07;;;8.70;;
27580;SDS011;63557;52.302;7.964;2023-07-08T14:02:59;9.73;;;8.75;;
27580;SDS011;63557;52.302;7.964;2023-07-08T14:08:00;8.57;;;7.67;;
27580;SDS011;63557;52.302;7.964;2023-07-08T14:13:00;9.20;;;7.33;;
27580;SDS011;63557;52.302;7.964;2023-07-08T14:18:00;8.93;;;8.13;;
27580;SDS011;63557;52.302;7.964;2023-07-08T14:23:01;9.67;;;8.77;;
27580;SDS011;63557;52.302;7.964;2023-07-08T14:28:01;11.97;;;8.30;;
27580;SDS011;63557;52.302;7.964;2023-07-08T14:33:02;8.27;;;7.68;;
27580;SDS011;63557;52.302;7.964;2023-07-08T14:38:04;8.50;;;7.73;;
27580;SDS011;63557;52.302;7.964;2023-07-08T14:48:41;9.45;;;8.23;;
27580;SDS011;63557;52.302;7.964;2023-07-08T14:53:41;9.83;;;8.33;;
27580;SDS011;63557;52.302;7.964;2023-07-08T14:58:43;8.77;;;8.00;;
27580;SDS011;63557;52.302;7.964;2023-07-08T15:03:44;8.63;;;7.72;;
27580;SDS011;63557;52.302;7.964;2023-07-08T15:08:44;8.70;;;7.93;;
27580;SDS011;63557;52.302;7.964;2023-07-08T15:13:45;8.93;;;8.13;;
27580;SDS011;63557;52.302;7.964;2023-07-08T15:18:45;9.67;;;7.73;;
27580;SDS011;63557;52.302;7.964;2023-07-08T15:23:45;10.97;;;8.00;;
27580;SDS011;63557;52.302;7.964;2023-07-08T15:28:46;9.90;;;8.00;;
27580;SDS011;63557;52.302;7.964;2023-07-08T15:33:48;9.38;;;7.68;;
27580;SDS011;63557;52.302;7.964;2023-07-08T15:38:48;11.93;;;7.77;;
27580;SDS011;63557;52.302;7.964;2023-07-08T15:43:48;8.80;;;7.93;;
27580;SDS011;63557;52.302;7.964;2023-07-08T15:48:49;12.02;;;7.47;;
27580;SDS011;63557;52.302;7.964;2023-07-08T15:53:50;11.77;;;7.45;;
27580;SDS011;63557;52.302;7.964;2023-07-08T15:58:50;9.80;;;7.73;;
27580;SDS011;63557;52.302;7.964;2023-07-08T16:03:51;11.10;;;7.67;;
27580;SDS011;63557;52.302;7.964;2023-07-08T16:08:51;11.77;;;8.65;;
27580;SDS011;63557;52.302;7.964;2023-07-08T16:13:52;10.30;;;7.77;;
27580;SDS011;63557;52.302;7.964;2023-07-08T16:18:52;8.90;;;8.07;;
27580;SDS011;63557;52.302;7.964;2023-07-08T16:23:52;13.57;;;7.77;;
27580;SDS011;63557;52.302;7.964;2023-07-08T16:28:53;9.47;;;7.70;;
27580;SDS011;63557;52.302;7.964;2023-07-08T16:33:53;11.98;;;8.13;;
27580;SDS011;63557;52.302;7.964;2023-07-08T16:38:55;8.13;;;7.32;;
27580;SDS011;63557;52.302;7.964;2023-07-08T16:43:56;10.93;;;7.78;;
27580;SDS011;63557;52.302;7.964;2023-07-08T16:48:56;8.50;;;7.60;;
27580;SDS011;63557;52.302;7.964;2023-07-08T16:53:58;9.40;;;7.63;;
27580;SDS011;63557;52.302;7.964;2023-07-08T16:59:00;10.00;;;7.53;;
27580;SDS011;63557;52.302;7.964;2023-07-08T17:04:00;7.27;;;6.67;;
27580;SDS011;63557;52.302;7.964;2023-07-08T17:09:01;9.25;;;7.30;;
27580;SDS011;63557;52.302;7.964;2023-07-08T17:14:04;11.13;;;7.43;;
27580;SDS011;63557;52.302;7.964;2023-07-08T17:19:07;8.10;;;7.15;;
27580;SDS011;63557;52.302;7.964;2023-07-08T17:24:09;11.05;;;7.85;;
27580;SDS011;63557;52.302;7.964;2023-07-08T17:29:10;8.57;;;7.68;;
27580;SDS011;63557;52.302;7.964;2023-07-08T17:34:16;11.53;;;7.57;;
27580;SDS011;63557;52.302;7.964;2023-07-08T17:39:19;11.52;;;7.00;;
27580;SDS011;63557;52.302;7.964;2023-07-08T17:44:19;8.70;;;6.72;;
27580;SDS011;63557;52.302;7.964;2023-07-08T17:49:20;9.90;;;7.18;;
27580;SDS011;63557;52.302;7.964;2023-07-08T17:54:20;8.17;;;7.30;;
27580;SDS011;63557;52.302;7.964;2023-07-08T17:59:21;11.20;;;7.37;;
27580;SDS011;63557;52.302;7.964;2023-07-08T18:04:21;9.38;;;8.15;;
27580;SDS011;63557;52.302;7.964;2023-07-08T18:09:22;7.82;;;7.03;;
27580;SDS011;63557;52.302;7.964;2023-07-08T18:14:22;11.37;;;7.50;;
27580;SDS011;63557;52.302;7.964;2023-07-08T18:19:22;9.37;;;7.20;;
27580;SDS011;63557;52.302;7.964;2023-07-08T18:24:23;8.97;;;7.67;;
27580;SDS011;63557;52.302;7.964;2023-07-08T18:29:23;8.87;;;7.57;;
27580;SDS011;63557;52.302;7.964;2023-07-08T18:34:24;11.82;;;7.78;;
27580;SDS011;63557;52.302;7.964;2023-07-08T18:39:24;9.03;;;7.47;;
27580;SDS011;63557;52.302;7.964;2023-07-08T18:44:26;13.20;;;8.90;;
27580;SDS011;63557;52.302;7.964;2023-07-08T18:49:27;9.75;;;8.10;;
27580;SDS011;63557;52.302;7.964;2023-07-08T18:54:29;10.80;;;7.57;;
27580;SDS011;63557;52.302;7.964;2023-07-08T18:59:29;18.43;;;8.70;;
27580;SDS011;63557;52.302;7.964;2023-07-08T19:04:29;10.83;;;8.50;;
27580;SDS011;63557;52.302;7.964;2023-07-08T19:09:30;11.77;;;8.03;;
27580;SDS011;63557;52.302;7.964;2023-07-08T19:14:33;9.23;;;7.90;;
27580;SDS011;63557;52.302;7.964;2023-07-08T19:19:34;12.17;;;8.00;;
27580;SDS011;63557;52.302;7.964;2023-07-08T19:24:34;10.93;;;8.17;;
27580;SDS011;63557;52.302;7.964;2023-07-08T19:29:34;12.53;;;8.57;;
27580;SDS011;63557;52.302;7.964;2023-07-08T19:34:35;10.37;;;8.03;;
27580;SDS011;63557;52.302;7.964;2023-07-08T19:39:35;9.30;;;7.60;;
27580;SDS011;63557;52.302;7.964;2023-07-08T19:44:36;11.47;;;8.73;;
27580;SDS011;63557;52.302;7.964;2023-07-08T19:49:37;11.37;;;8.23;;
27580;SDS011;63557;52.302;7.964;2023-07-08T19:54:37;11.20;;;8.57;;
27580;SDS011;63557;52.302;7.964;2023-07-08T19:59:38;11.65;;;8.95;;
27580;SDS011;63557;52.302;7.964;2023-07-08T20:04:38;10.93;;;8.97;;
27580;SDS011;63557;52.302;7.964;2023-07-08T20:09:38;11.50;;;9.13;;
27580;SDS011;63557;52.302;7.964;2023-07-08T20:14:40;14.23;;;9.20;;
27580;SDS011;63557;52.302;7.964;2023-07-08T20:19:41;9.40;;;8.18;;
27580;SDS011;63557;52.302;7.964;2023-07-08T20:24:41;14.07;;;9.30;;
27580;SDS011;63557;52.302;7.964;2023-07-08T20:29:41;17.83;;;9.40;;
27580;SDS011;63557;52.302;7.964;2023-07-08T20:34:42;11.33;;;10.13;;
27580;SDS011;63557;52.302;7.964;2023-07-08T20:39:42;10.60;;;8.30;;
27580;SDS011;63557;52.302;7.964;2023-07-08T20:44:42;17.50;;;9.40;;
27580;SDS011;63557;52.302;7.964;2023-07-08T20:49:43;15.07;;;8.97;;
27580;SDS011;63557;52.302;7.964;2023-07-08T20:54:43;13.50;;;9.23;;
27580;SDS011;63557;52.302;7.964;2023-07-08T20:59:43;13.47;;;9.43;;
27580;SDS011;63557;52.302;7.964;2023-07-08T21:04:44;12.97;;;8.73;;
27580;SDS011;63557;52.302;7.964;2023-07-08T21:09:44;12.43;;;9.60;;
27580;SDS011;63557;52.302;7.964;2023-07-08T21:14:45;9.30;;;8.20;;
27580;SDS011;63557;52.302;7.964;2023-07-08T21:19:45;12.47;;;9.20;;
27580;SDS011;63557;52.302;7.964;2023-07-08T21:24:46;10.50;;;9.20;;
27580;SDS011;63557;52.302;7.964;2023-07-08T21:29:46;11.23;;;8.53;;
27580;SDS011;63557;52.302;7.964;2023-07-08T21:34:47;11.93;;;9.52;;
27580;SDS011;63557;52.302;7.964;2023-07-08T21:39:47;17.83;;;9.80;;
27580;SDS011;63557;52.302;7.964;2023-07-08T21:44:47;13.17;;;9.03;;
27580;SDS011;63557;52.302;7.964;2023-07-08T21:49:48;12.13;;;9.57;;
27580;SDS011;63557;52.302;7.964;2023-07-08T21:54:51;10.40;;;9.20;;
27580;SDS011;63557;52.302;7.964;2023-07-08T21:59:51;14.20;;;9.23;;
27580;SDS011;63557;52.302;7.964;2023-07-08T22:04:51;13.17;;;9.27;;
27580;SDS011;63557;52.302;7.964;2023-07-08T22:09:52;14.55;;;8.65;;
27580;SDS011;63557;52.302;7.964;2023-07-08T22:14:53;14.40;;;9.30;;
27580;SDS011;63557;52.302;7.964;2023-07-08T22:19:53;11.10;;;9.57;;
27580;SDS011;63557;52.302;7.964;2023-07-08T22:24:54;13.20;;;9.60;;
27580;SDS011;63557;52.302;7.964;2023-07-08T22:29:54;12.77;;;9.53;;
27580;SDS011;63557;52.302;7.964;2023-07-08T22:34:54;17.73;;;10.30;;
27580;SDS011;63557;52.302;7.964;2023-07-08T22:39:55;14.60;;;10.33;;
27580;SDS011;63557;52.302;7.964;2023-07-08T22:44:55;13.73;;;10.07;;
27580;SDS011;63557;52.302;7.964;2023-07-08T22:49:58;13.50;;;9.88;;
27580;SDS011;63557;52.302;7.964;2023-07-08T22:55:15;12.88;;;9.38;;
27580;SDS011;63557;52.302;7.964;2023-07-08T23:00:20;15.90;;;9.57;;
27580;SDS011;63557;52.302;7.964;2023-07-08T23:05:23;18.30;;;9.48;;
27580;SDS011;63557;52.302;7.964;2023-07-08T23:10:24;18.13;;;10.07;;
27580;SDS011;63557;52.302;7.964;2023-07-08T23:15:25;15.88;;;9.80;;
27580;SDS011;63557;52.302;7.964;2023-07-08T23:20:25;11.50;;;10.10;;
27580;SDS011;63557;52.302;7.964;2023-07-08T23:25:25;13.10;;;10.70;;
27580;SDS011;63557;52.302;7.964;2023-07-08T23:30:26;14.33;;;11.00;;
27580;SDS011;63557;52.302;7.964;2023-07-08T23:35:26;14.07;;;10.73;;
27580;SDS011;63557;52.302;7.964;2023-07-08T23:40:26;11.90;;;9.97;;
27580;SDS011;63557;52.302;7.964;2023-07-08T23:45:27;14.90;;;9.90;;
27580;SDS011;63557;52.302;7.964;2023-07-08T23:50:27;18.30;;;10.80;;
27580;SDS011;63557;52.302;7.964;2023-07-08T23:55:27;15.03;;;9.57;;
